Aeroporto :
LOGIN :

Iscrizione | Disclaimer

   EN    FR    IT 

 










Sommario :    VFR   VFR Marginale   IFR   IFR Intensivo   IFR Molto Intensivo
Visibilità : 
Base nubi : 
>= 8 km
>= 3000ft
5 / 8 km
1000 / 3000 ft
1500m / 5 km
500 / 1000 ft
800 / 1500m
200 / 500 ft
< 800m
< 200 ft
Simboli :   Temporali  Nebbia  Neve Forte  Precipitazioni Forti  Vento > 20 kt
SIGMETs :   Varie  Temporali  Ghiacco  Turbolenza  Onda orograficha  Ceneri Vulcaniche






- Altitudine del aeroporto : 9 ft
- Codice IATA : MIR


DTMB - Habib Bourguliba Int. Monastir

ULTIMO METAR :
  • 250230Z 31007KT CAVOK 21/15 Q1021 NOSIG

METARs OBSOLETI :
  • 250200Z 34010KT CAVOK 21/15 Q1021 NOSIG
  • 250130Z 34011KT 9999 FEW040 21/15 Q1021 NOSIG
  • 250100Z 33010KT 9999 FEW040 21/15 Q1022 NOSIG
  • 250030Z 34009KT 9999 FEW040 21/15 Q1022 NOSIG
  • 250000Z 33011KT CAVOK 21/15 Q1022 NOSIG
  • 242330Z 33009KT CAVOK 21/14 Q1022 NOSIG
  • 242300Z 34009KT CAVOK 22/14 Q1022 NOSIG

TAF TAF DTMB
Valido dal 25 a 00 ore il 26 a 00 ore UTC


242300Z 2500/2524 34010KT 9999 FEW023
BECMG 2500/2502 25005KT
BECMG 2508/2510 31010KT
PROB30
TEMPO 2510/2518 -SHRA FEW023CB
BECMG 2514/2516 23012KT



MetMap, La meteo Aeronautica in un colpo d'occhio ! - Copyright ORBIFLY Dicembre 2007 - Disclaimer

ORBIFLY MET'MAP TEAM :

Programmazione e sviluppo : Alexandra Zaïnal
Concezione : Baudouin d'Aumeries
Aiuto per la programmazione : Marc-Olivier Méhu
Supporto tecnico e logistico : Manuel Goepfert
Aiuto per la traduzione : Arnaldo La Scala

Contatto : metmap@orbifly.com




FONTI E CREDITI :

   NOAA